METAR AND TAF INFORMATION
METAR FOR SKCL
ADDS - METARS form results

(1935 UTC 26 April 2018)
Data provider http://aviationweather.gov/adds/metars/
 
METAR text: SKCL 262000Z 14006KT 7000 SCT020 SCT120 BKN300 28/20 A2995 RMK HZ
Conditions at: SKCL (CALI/ALFONSO BON, CO) observed 2000 UTC 26 April 2018
Temperature: 28.0°C (82°F)
Dewpoint: 20.0°C (68°F) [RH = 62%]
Pressure (altimeter): 29.95 inches Hg (1014.3 mb)
Winds: from the SE (140 degrees) at 7 MPH (6 knots; 3.1 m/s)
Visibility: 4 miles (7 km)
Ceiling: 30000 feet AGL
Clouds: scattered clouds at 2000 feet AGL
scattered clouds at 12000 feet AGL
broken clouds at 30000 feet AGL
Weather: no significant weather observed at this time

METAR text: SKCL 261900Z 14006KT 7000 SCT020 SCT120 BKN300 28/20 A2995 RMK HZ
Conditions at: SKCL (CALI/ALFONSO BON, CO) observed 1900 UTC 26 April 2018
Temperature: 28.0°C (82°F)
Dewpoint: 20.0°C (68°F) [RH = 62%]
Pressure (altimeter): 29.95 inches Hg (1014.3 mb)
Winds: from the SE (140 degrees) at 7 MPH (6 knots; 3.1 m/s)
Visibility: 4 miles (7 km)
Ceiling: 30000 feet AGL
Clouds: scattered clouds at 2000 feet AGL
scattered clouds at 12000 feet AGL
broken clouds at 30000 feet AGL
Weather: no significant weather observed at this time

Forecast for: SKCL (CALI/ALFONSO BON, CO)
Text: TAF SKCL 261700Z 2618/2718 35008KT 9999 SCT020TCU SCT100
Forecast period: 1800 to 2300 UTC 26 April 2018
Forecast type: FROM: standard forecast or significant change
Winds: from the N (350 degrees) at 9 MPH (8 knots; 4.2 m/s)
Visibility: 6 or more miles (10+ km)
Clouds: scattered clouds at 2000 feet AGL
scattered clouds at 10000 feet AGL
Weather: no significant weather forecast for this period
Forecast for: SKCL (CALI/ALFONSO BON, CO)
Text: TAF SKCL 261700Z 2618/2718 35008KT 9999 SCT020TCU SCT100
Forecast period: 1800 to 2300 UTC 26 April 2018
Forecast type: FROM: standard forecast or significant change
Winds: from the N (350 degrees) at 9 MPH (8 knots; 4.2 m/s)
Visibility: 6 or more miles (10+ km)
Clouds: scattered clouds at 2000 feet AGL
scattered clouds at 10000 feet AGL
Weather: no significant weather forecast for this period
Forecast for: SKCL (CALI/ALFONSO BON, CO)
Text: TAF SKCL 261700Z 2618/2718 35008KT 9999 SCT020TCU SCT100
Forecast period: 1900 to 2200 UTC 26 April 2018
Forecast type: TEMPORARY: The following changes expected for less than half the time period
Visibility: 5 miles (8 km)
Clouds: scattered clouds at 1800 feet AGL
Weather: VCTS  (thunderstorm in vicinity)
Forecast for: SKCL (CALI/ALFONSO BON, CO)
Text: TAF SKCL 261700Z 2618/2718 35008KT 9999 SCT020TCU SCT100
Forecast period: 1900 to 2200 UTC 26 April 2018
Forecast type: TEMPORARY: The following changes expected for less than half the time period
Visibility: 5 miles (8 km)
Clouds: scattered clouds at 1800 feet AGL
Weather: VCTS  (thunderstorm in vicinity)
Forecast for: SKCL (CALI/ALFONSO BON, CO)
Text: TAF SKCL 261700Z 2618/2718 35008KT 9999 SCT020TCU SCT100
Forecast period: 2200 to 2300 UTC 26 April 2018
Forecast type: TEMPORARY: The following changes expected for less than half the time period
Visibility: 4 miles (7 km)
Clouds: scattered clouds at 1500 feet AGL
Weather: DZ RA  (drizzle, rain)
Forecast for: SKCL (CALI/ALFONSO BON, CO)
Text: TAF SKCL 261700Z 2618/2718 35008KT 9999 SCT020TCU SCT100
Forecast period: 2200 to 2300 UTC 26 April 2018
Forecast type: TEMPORARY: The following changes expected for less than half the time period
Visibility: 4 miles (7 km)
Clouds: scattered clouds at 1500 feet AGL
Weather: DZ RA  (drizzle, rain)
Forecast for: SKCL (CALI/ALFONSO BON, CO)
Text: TAF SKCL 261700Z 2618/2718 35008KT 9999 SCT020TCU SCT100
Forecast period: 2300 UTC 26 April 2018 to 1800 UTC 27 April 2018
Forecast type: BECOMING: Conditions expected to become as follows by 0100 UTC 27 April 2018
Winds: from the N (350 degrees) at 9 MPH (8 knots; 4.2 m/s)
Visibility: 6 or more miles (10+ km)
Ceiling: 10000 feet AGL
Clouds: few clouds at 1700 feet AGL
broken clouds at 10000 feet AGL
Weather: no significant weather forecast for this period
Forecast for: SKCL (CALI/ALFONSO BON, CO)
Text: TAF SKCL 261700Z 2618/2718 35008KT 9999 SCT020TCU SCT100
Forecast period: 2300 UTC 26 April 2018 to 1800 UTC 27 April 2018
Forecast type: BECOMING: Conditions expected to become as follows by 0100 UTC 27 April 2018
Winds: from the N (350 degrees) at 9 MPH (8 knots; 4.2 m/s)
Visibility: 6 or more miles (10+ km)
Ceiling: 10000 feet AGL
Clouds: few clouds at 1700 feet AGL
broken clouds at 10000 feet AGL
Weather: no significant weather forecast for this period
Forecast for: SKCL (CALI/ALFONSO BON, CO)
Text: TAF SKCL 261700Z 2618/2718 35008KT 9999 SCT020TCU SCT100
Forecast period: 0400 to 0800 UTC 27 April 2018
Forecast type: TEMPORARY: The following changes expected for less than half the time period
Visibility: 5 miles (8 km)
Weather: DZ RA  (drizzle, rain)
Forecast for: SKCL (CALI/ALFONSO BON, CO)
Text: TAF SKCL 261700Z 2618/2718 35008KT 9999 SCT020TCU SCT100
Forecast period: 0400 to 0800 UTC 27 April 2018
Forecast type: TEMPORARY: The following changes expected for less than half the time period
Visibility: 5 miles (8 km)
Weather: DZ RA  (drizzle, rain)
Forecast for: SKCL (CALI/ALFONSO BON, CO)
Text: TAF SKCL 261700Z 2618/2718 35008KT 9999 SCT020TCU SCT100
Forecast period: 1000 to 1300 UTC 27 April 2018
Forecast type: TEMPORARY: The following changes expected for less than half the time period
Visibility: 4 miles (6 km)
Clouds: scattered clouds at 1000 feet AGL
Weather: no significant weather forecast for this period
Forecast for: SKCL (CALI/ALFONSO BON, CO)
Text: TAF SKCL 261700Z 2618/2718 35008KT 9999 SCT020TCU SCT100
Forecast period: 1000 to 1300 UTC 27 April 2018
Forecast type: TEMPORARY: The following changes expected for less than half the time period
Visibility: 4 miles (6 km)
Clouds: scattered clouds at 1000 feet AGL
Weather: no significant weather forecast for this period

 AIRPORT MAP

 RUNWAY INFORMATION
Runway 01 Runway length 9842 ft Runway width 148 ft
Runway elevation 3153 ft Runway displaced threshold 0 ft Runway heading 10
Runway 19 Runway length 9842 ft Runway width 148 ft
Runway elevation 3162 ft Runway displaced threshold 0 ft Runway heading 190

 AIRPORT FREQUENCIES
Type APP Name CALI APP Frequency 119.1 MHZ
Type ATIS Name ATIS Frequency 115.5 MHZ
Type GND Name GND Frequency 121.9 MHZ
Type RDO Name CALI RDO Frequency 126.7 MHZ
Type TWR Name TWR Frequency 118.1 MHZ

 AIRPORT NEAR NAVIGATION AIDS
Type VOR-DME Name Cali Frequency 115500 KHZ
Type NDB Name Cali Frequency 210 KHZ
Type NDB Name Palma Frequency 274 KHZ



v2.6.1